createdAt,value
2022-10-31T00:00:15.863Z,16.25
2022-10-31T00:01:28.497Z,8.27
2022-10-31T00:02:30.119Z,9.98
2022-10-31T00:03:31.834Z,12.73
2022-10-31T00:04:33.464Z,15.02
2022-10-31T00:05:35.035Z,20.52
2022-10-31T00:06:36.649Z,11.80
2022-10-31T00:07:38.249Z,14.35
2022-10-31T00:08:40.030Z,13.57
2022-10-31T00:09:41.649Z,12.57
2022-10-31T00:10:44.343Z,12.68
2022-10-31T00:11:46.020Z,22.30
2022-10-31T00:12:47.660Z,13.57
2022-10-31T00:13:49.275Z,11.55
2022-10-31T00:14:50.846Z,18.15
2022-10-31T00:15:52.486Z,11.73
2022-10-31T00:16:54.080Z,12.85
2022-10-31T00:17:55.780Z,13.40
2022-10-31T00:19:00.445Z,8.70
2022-10-31T00:20:02.155Z,16.75
2022-10-31T00:21:04.563Z,20.35
2022-10-31T00:22:06.133Z,9.98
2022-10-31T00:23:08.047Z,10.70
2022-10-31T00:24:09.742Z,23.67
2022-10-31T00:25:11.340Z,19.10
2022-10-31T00:26:13.458Z,9.80
2022-10-31T00:27:15.175Z,14.00
2022-10-31T00:28:16.831Z,12.65
2022-10-31T00:29:18.633Z,11.15
2022-10-31T00:30:20.332Z,13.63
2022-10-31T00:31:21.940Z,10.18
2022-10-31T00:32:23.527Z,13.68
2022-10-31T00:33:25.150Z,8.60
2022-10-31T00:34:26.791Z,10.93
2022-10-31T00:35:28.409Z,13.50
2022-10-31T00:36:30.036Z,15.75
2022-10-31T00:37:31.623Z,14.38
2022-10-31T00:38:33.770Z,13.73
2022-10-31T00:39:35.373Z,10.88
2022-10-31T00:40:36.998Z,13.57
2022-10-31T00:41:38.574Z,10.27
2022-10-31T00:42:42.435Z,12.52
2022-10-31T00:43:44.659Z,12.88
2022-10-31T00:44:46.368Z,15.85
2022-10-31T00:45:48.023Z,16.40
2022-10-31T00:46:49.645Z,8.30
2022-10-31T00:47:51.488Z,8.32
2022-10-31T00:48:53.176Z,18.17
2022-10-31T00:49:54.942Z,13.38
2022-10-31T00:50:56.921Z,9.32
2022-10-31T00:51:58.540Z,18.25
2022-10-31T00:53:00.197Z,11.57
2022-10-31T00:54:01.779Z,9.90
2022-10-31T00:55:03.665Z,16.48
2022-10-31T00:56:05.957Z,9.95
2022-10-31T00:57:07.562Z,14.85
2022-10-31T00:58:09.324Z,13.00
2022-10-31T00:59:10.925Z,10.15
2022-10-31T01:00:12.886Z,6.07
2022-10-31T01:01:14.576Z,10.02
2022-10-31T01:02:17.396Z,12.48
2022-10-31T01:03:19.115Z,7.70
2022-10-31T01:04:20.785Z,14.90
2022-10-31T01:05:22.467Z,13.07
2022-10-31T01:06:24.163Z,18.27
2022-10-31T01:07:25.736Z,14.10
2022-10-31T01:08:27.888Z,14.30
2022-10-31T01:09:29.500Z,14.35
2022-10-31T01:10:31.130Z,10.45
2022-10-31T01:11:32.773Z,15.15
2022-10-31T01:12:38.905Z,11.88
2022-10-31T01:13:41.220Z,12.85
2022-10-31T01:14:45.645Z,13.95
2022-10-31T01:15:55.292Z,15.13
2022-10-31T01:16:56.876Z,13.88
2022-10-31T01:17:58.793Z,20.65
2022-10-31T01:19:00.631Z,11.57
2022-10-31T01:20:02.502Z,11.57
2022-10-31T01:21:19.786Z,12.55
2022-10-31T01:22:21.363Z,12.13
2022-10-31T01:23:22.955Z,10.02
2022-10-31T01:24:24.672Z,12.95
2022-10-31T01:25:26.284Z,9.85
2022-10-31T01:26:31.662Z,17.15
2022-10-31T01:27:33.339Z,12.50
2022-10-31T01:28:36.962Z,9.30
2022-10-31T01:29:38.588Z,14.13
2022-10-31T01:30:40.198Z,20.00
2022-10-31T01:31:41.862Z,10.35
2022-10-31T01:32:43.455Z,16.20
2022-10-31T01:33:45.341Z,10.18
2022-10-31T01:34:46.933Z,14.93
2022-10-31T01:35:48.509Z,8.38
2022-10-31T01:36:52.281Z,13.73
2022-10-31T01:37:54.076Z,16.77
2022-10-31T01:38:59.469Z,14.15
2022-10-31T01:40:01.139Z,8.10
2022-10-31T01:41:02.755Z,11.63
2022-10-31T01:42:04.395Z,7.13
2022-10-31T01:43:05.994Z,13.30
2022-10-31T01:44:16.336Z,10.80
2022-10-31T01:45:18.801Z,15.25
2022-10-31T01:46:28.310Z,10.32
2022-10-31T01:47:46.337Z,15.25
2022-10-31T01:48:48.508Z,16.70
2022-10-31T01:50:00.047Z,10.43
2022-10-31T01:51:02.165Z,15.07
2022-10-31T01:52:09.810Z,15.73
2022-10-31T01:53:12.892Z,10.73
2022-10-31T01:54:19.078Z,9.40
2022-10-31T01:55:34.927Z,17.60
2022-10-31T01:56:41.555Z,9.60
2022-10-31T01:57:46.188Z,9.40
2022-10-31T01:58:48.200Z,11.38
2022-10-31T01:59:54.298Z,10.95
2022-10-31T02:01:01.905Z,12.65
2022-10-31T02:02:07.710Z,12.10
2022-10-31T02:03:09.427Z,7.25
2022-10-31T02:04:11.340Z,10.48
2022-10-31T02:05:20.871Z,10.88
2022-10-31T02:06:39.440Z,8.32
2022-10-31T02:07:52.732Z,12.40
2022-10-31T02:08:55.654Z,17.33
2022-10-31T02:09:58.476Z,15.68
2022-10-31T02:11:02.184Z,12.05
2022-10-31T02:12:04.546Z,12.57
2022-10-31T02:13:08.238Z,10.10
2022-10-31T02:14:09.839Z,8.30
2022-10-31T02:15:11.741Z,14.70
2022-10-31T02:16:13.397Z,11.52
2022-10-31T02:17:15.661Z,14.60
2022-10-31T02:18:18.425Z,12.48
2022-10-31T02:19:43.193Z,6.72
2022-10-31T02:20:57.086Z,11.48
2022-10-31T02:22:10.382Z,22.10
2022-10-31T02:23:28.897Z,12.45
2022-10-31T02:24:59.281Z,10.77
2022-10-31T02:26:25.708Z,13.40
2022-10-31T02:27:49.608Z,10.48
2022-10-31T02:29:06.352Z,13.85
2022-10-31T02:30:23.737Z,14.30
2022-10-31T02:31:44.770Z,20.05
2022-10-31T02:33:01.197Z,12.68
2022-10-31T02:34:24.982Z,12.60
2022-10-31T02:35:44.579Z,14.45
2022-10-31T02:37:07.304Z,9.30
2022-10-31T02:38:37.552Z,12.00
2022-10-31T02:40:11.447Z,11.73
2022-10-31T02:41:33.929Z,9.45
2022-10-31T02:42:50.035Z,9.60
2022-10-31T02:44:16.122Z,8.20
2022-10-31T02:45:34.863Z,12.95
2022-10-31T02:46:46.271Z,14.68
2022-10-31T02:47:51.287Z,11.45
2022-10-31T02:48:58.640Z,19.20
2022-10-31T02:50:06.503Z,15.98
2022-10-31T02:51:09.538Z,9.82
2022-10-31T02:52:22.014Z,13.35
2022-10-31T02:53:23.726Z,11.68
2022-10-31T02:54:28.027Z,11.65
2022-10-31T02:55:29.575Z,11.52
2022-10-31T02:56:31.288Z,13.10
2022-10-31T02:57:36.177Z,15.70
2022-10-31T02:58:59.802Z,14.68
2022-10-31T03:00:07.434Z,24.75
2022-10-31T03:01:37.062Z,11.10
2022-10-31T03:02:54.989Z,14.93
2022-10-31T03:04:17.364Z,18.30
2022-10-31T03:05:18.921Z,11.98
2022-10-31T03:06:24.840Z,10.77
2022-10-31T03:07:42.083Z,10.18
2022-10-31T03:09:17.031Z,12.70
2022-10-31T03:10:39.382Z,12.70
2022-10-31T03:12:00.181Z,10.75
2022-10-31T03:14:50.289Z,17.58
2022-10-31T03:15:57.346Z,16.15
2022-10-31T03:17:03.799Z,18.45
2022-10-31T03:18:14.164Z,11.32
2022-10-31T03:19:32.400Z,7.88
2022-10-31T03:20:41.191Z,16.75
2022-10-31T03:21:48.302Z,8.43
2022-10-31T03:22:50.015Z,14.82
2022-10-31T03:23:54.764Z,11.18
2022-10-31T03:24:58.583Z,11.05
2022-10-31T03:26:03.258Z,11.05
2022-10-31T03:27:08.815Z,18.42
2022-10-31T03:28:13.976Z,13.75
2022-10-31T03:29:19.577Z,10.65
2022-10-31T03:30:21.305Z,11.90
2022-10-31T03:31:28.683Z,9.68
2022-10-31T03:32:39.591Z,14.15
2022-10-31T03:33:43.342Z,12.38
2022-10-31T03:34:47.006Z,12.73
2022-10-31T03:35:53.244Z,12.00
2022-10-31T03:36:58.443Z,7.10
2022-10-31T03:38:06.783Z,13.23
2022-10-31T03:39:13.816Z,7.15
2022-10-31T03:40:17.024Z,13.05
2022-10-31T03:41:28.570Z,16.02
2022-10-31T03:42:36.911Z,13.18
2022-10-31T03:43:43.687Z,10.93
2022-10-31T03:44:54.298Z,7.60
2022-10-31T03:45:56.538Z,10.52
2022-10-31T03:46:58.515Z,22.90
2022-10-31T03:48:01.269Z,15.55
2022-10-31T03:49:04.243Z,15.40
2022-10-31T03:50:08.442Z,11.63
2022-10-31T03:51:41.704Z,16.35
2022-10-31T03:53:00.526Z,9.70
2022-10-31T03:54:10.848Z,12.25
2022-10-31T03:55:26.975Z,11.00
2022-10-31T03:56:49.857Z,14.93
2022-10-31T03:58:16.381Z,11.50
2022-10-31T03:59:29.591Z,14.63
2022-10-31T04:00:34.316Z,12.32
2022-10-31T04:01:40.952Z,13.73
2022-10-31T04:02:57.227Z,11.00
2022-10-31T04:03:59.845Z,11.93
2022-10-31T04:05:02.247Z,12.82
2022-10-31T04:06:10.650Z,10.80
2022-10-31T04:07:13.324Z,13.95
2022-10-31T04:08:19.853Z,7.88
2022-10-31T04:09:22.935Z,11.05
2022-10-31T04:10:31.841Z,10.07
2022-10-31T04:11:41.564Z,8.85
2022-10-31T04:12:50.049Z,10.27
2022-10-31T04:13:54.082Z,9.38
2022-10-31T04:14:56.716Z,7.32
2022-10-31T04:15:58.946Z,11.35
2022-10-31T04:17:02.395Z,15.68
2022-10-31T04:18:06.003Z,9.05
2022-10-31T04:19:07.636Z,11.00
2022-10-31T04:20:09.739Z,7.85
2022-10-31T04:21:11.524Z,11.32
2022-10-31T04:22:13.528Z,10.27
2022-10-31T04:23:21.638Z,9.75
2022-10-31T04:24:23.355Z,9.52
2022-10-31T04:25:24.934Z,9.32
2022-10-31T04:26:28.061Z,11.43
2022-10-31T04:27:29.722Z,13.95
2022-10-31T04:28:31.483Z,10.80
2022-10-31T04:29:33.054Z,9.90
2022-10-31T04:30:34.647Z,10.00
2022-10-31T04:31:36.262Z,15.20
2022-10-31T04:32:37.833Z,19.10
2022-10-31T04:33:39.529Z,16.92
2022-10-31T04:34:41.136Z,20.15
2022-10-31T04:35:42.795Z,16.60
2022-10-31T04:36:44.429Z,17.00
2022-10-31T04:37:46.080Z,15.55
2022-10-31T04:38:47.705Z,18.38
2022-10-31T04:39:49.334Z,20.40
2022-10-31T04:40:50.938Z,14.45
2022-10-31T04:41:52.684Z,13.30
2022-10-31T04:42:54.381Z,21.40
2022-10-31T04:43:56.041Z,18.55
2022-10-31T04:44:57.640Z,17.92
2022-10-31T04:45:59.306Z,10.50
2022-10-31T04:47:00.992Z,14.88
2022-10-31T04:48:02.929Z,8.82
2022-10-31T04:49:04.839Z,19.38
2022-10-31T04:50:06.849Z,11.32
2022-10-31T04:51:08.516Z,18.70
2022-10-31T04:52:10.168Z,9.77
2022-10-31T04:53:11.807Z,22.20
2022-10-31T04:54:13.382Z,21.02
2022-10-31T04:55:15.354Z,13.65
2022-10-31T04:56:17.035Z,8.95
2022-10-31T04:57:18.804Z,10.82
2022-10-31T04:58:20.432Z,12.93
2022-10-31T04:59:22.095Z,16.00
2022-10-31T05:00:23.944Z,27.85
2022-10-31T05:01:25.684Z,15.10
2022-10-31T05:02:27.417Z,12.82
2022-10-31T05:03:29.065Z,10.48
2022-10-31T05:04:30.655Z,14.63
2022-10-31T05:05:32.942Z,14.57
2022-10-31T05:06:34.524Z,15.07
2022-10-31T05:07:40.683Z,13.23
2022-10-31T05:08:42.287Z,18.38
2022-10-31T05:09:43.870Z,12.25
2022-10-31T05:10:45.573Z,12.70
2022-10-31T05:11:47.194Z,13.18
2022-10-31T05:12:57.546Z,8.38
2022-10-31T05:13:59.407Z,16.63
2022-10-31T05:15:01.001Z,11.63
2022-10-31T05:16:02.706Z,10.38
2022-10-31T05:17:04.311Z,12.95
2022-10-31T05:18:05.998Z,15.02
2022-10-31T05:19:07.616Z,15.38
2022-10-31T05:20:10.124Z,15.07
2022-10-31T05:21:11.746Z,10.85
2022-10-31T05:22:13.420Z,17.83
2022-10-31T05:23:15.193Z,16.65
2022-10-31T05:24:16.816Z,12.20
2022-10-31T05:25:19.838Z,14.82
2022-10-31T05:26:21.478Z,18.40
2022-10-31T05:27:23.150Z,11.50
2022-10-31T05:28:24.818Z,10.38
2022-10-31T05:29:26.406Z,14.93
2022-10-31T05:30:30.500Z,17.30
2022-10-31T05:31:32.114Z,19.00
2022-10-31T05:32:45.130Z,15.07
2022-10-31T05:33:46.851Z,12.88
2022-10-31T05:34:48.442Z,15.25
2022-10-31T05:35:50.066Z,13.82
2022-10-31T05:36:51.701Z,13.75
2022-10-31T05:37:53.631Z,11.55
2022-10-31T05:38:55.461Z,20.02
2022-10-31T05:39:57.063Z,11.70
2022-10-31T05:41:00.841Z,14.43
2022-10-31T05:42:02.530Z,13.70
2022-10-31T05:43:04.408Z,10.13
2022-10-31T05:44:06.226Z,10.48
2022-10-31T05:45:09.959Z,8.70
2022-10-31T05:46:11.605Z,9.43
2022-10-31T05:47:13.215Z,13.07
2022-10-31T05:48:14.812Z,9.65
2022-10-31T05:49:18.290Z,12.77
2022-10-31T05:50:20.519Z,10.15
2022-10-31T05:51:22.147Z,9.40
2022-10-31T05:52:23.837Z,12.90
2022-10-31T05:53:25.433Z,17.33
2022-10-31T05:54:27.089Z,10.27
2022-10-31T05:55:29.446Z,14.07
2022-10-31T05:56:31.495Z,27.42
2022-10-31T05:57:34.106Z,22.48
2022-10-31T05:58:35.729Z,14.50
2022-10-31T05:59:37.374Z,13.02
2022-10-31T06:00:39.532Z,15.88
2022-10-31T06:01:41.155Z,14.20
2022-10-31T06:02:42.814Z,29.25
2022-10-31T06:03:44.447Z,13.13
2022-10-31T06:04:46.198Z,22.13
2022-10-31T06:05:50.805Z,19.55
2022-10-31T06:06:57.078Z,19.25
2022-10-31T06:07:59.465Z,40.28
2022-10-31T06:09:01.359Z,29.98
2022-10-31T06:10:05.735Z,17.70
2022-10-31T06:11:07.475Z,17.95
2022-10-31T06:12:09.059Z,16.60
2022-10-31T06:13:10.666Z,11.95
2022-10-31T06:14:12.319Z,20.92
2022-10-31T06:15:14.303Z,17.45
2022-10-31T06:16:15.895Z,14.70
2022-10-31T06:17:17.520Z,15.20
2022-10-31T06:18:19.192Z,8.15
2022-10-31T06:19:20.782Z,10.80
2022-10-31T06:20:22.406Z,14.90
2022-10-31T06:21:24.419Z,9.10
2022-10-31T06:22:26.067Z,12.77
2022-10-31T06:23:27.669Z,13.23
2022-10-31T06:24:29.271Z,9.32
2022-10-31T06:25:30.899Z,10.35
2022-10-31T06:26:32.477Z,10.20
2022-10-31T06:27:34.085Z,10.80
2022-10-31T06:28:35.685Z,13.25
2022-10-31T06:29:37.275Z,15.25
2022-10-31T06:30:38.953Z,9.30
2022-10-31T06:31:40.548Z,10.85
2022-10-31T06:32:42.228Z,9.05
2022-10-31T06:33:43.835Z,10.60
2022-10-31T06:34:45.648Z,11.65
2022-10-31T06:35:48.396Z,7.82
2022-10-31T06:36:50.356Z,11.13
2022-10-31T06:37:53.639Z,12.40
2022-10-31T06:38:55.287Z,11.30
2022-10-31T06:39:56.863Z,12.52
2022-10-31T06:40:58.649Z,18.40
2022-10-31T06:42:00.386Z,16.40
2022-10-31T06:43:02.431Z,8.68
2022-10-31T06:44:06.592Z,13.15
2022-10-31T06:45:10.724Z,12.20
2022-10-31T06:46:12.322Z,12.77
2022-10-31T06:47:13.925Z,10.02
2022-10-31T06:48:17.691Z,11.45
2022-10-31T06:49:20.058Z,10.85
2022-10-31T06:50:22.466Z,10.40
2022-10-31T06:51:24.163Z,9.95
2022-10-31T06:52:25.766Z,13.88
2022-10-31T06:53:30.509Z,18.95
2022-10-31T06:54:32.126Z,12.90
2022-10-31T06:55:33.753Z,14.25
2022-10-31T06:56:35.391Z,11.85
2022-10-31T06:57:36.997Z,13.07
2022-10-31T06:58:38.583Z,12.40
2022-10-31T06:59:40.170Z,13.32
2022-10-31T07:00:41.799Z,10.93
2022-10-31T07:01:43.907Z,9.95
2022-10-31T07:02:54.344Z,15.63
2022-10-31T07:03:55.936Z,10.27
2022-10-31T07:04:57.519Z,11.27
2022-10-31T07:05:59.570Z,9.75
2022-10-31T07:07:01.448Z,11.35
2022-10-31T07:08:08.106Z,17.67
2022-10-31T07:09:09.822Z,13.60
2022-10-31T07:11:12.946Z,38.42
2022-10-31T07:12:14.603Z,58.65
2022-10-31T07:13:16.192Z,62.17
2022-10-31T07:14:17.777Z,57.15
2022-10-31T07:15:19.375Z,63.17
2022-10-31T07:16:21.030Z,41.55
2022-10-31T07:17:29.688Z,45.20
2022-10-31T07:18:31.726Z,41.88
2022-10-31T07:19:33.342Z,40.97
2022-10-31T07:20:35.200Z,47.45
2022-10-31T07:21:36.778Z,43.35
2022-10-31T07:22:38.778Z,34.10
2022-10-31T07:23:40.346Z,39.33
2022-10-31T07:24:41.940Z,25.08
2022-10-31T07:25:43.608Z,24.00
2022-10-31T07:26:48.280Z,13.18
2022-10-31T07:27:50.340Z,15.82
2022-10-31T07:28:52.007Z,18.52
2022-10-31T07:29:53.608Z,17.10
2022-10-31T07:30:57.438Z,14.98
2022-10-31T07:31:59.089Z,14.75
2022-10-31T07:33:00.817Z,14.77
2022-10-31T07:34:02.442Z,15.07
2022-10-31T07:35:04.343Z,12.20
2022-10-31T07:36:06.357Z,11.40
2022-10-31T07:37:08.148Z,11.60
2022-10-31T07:38:11.670Z,12.07
2022-10-31T07:39:13.382Z,14.70
2022-10-31T07:40:15.612Z,10.95
2022-10-31T07:41:17.208Z,13.63
2022-10-31T07:42:18.786Z,21.52
2022-10-31T07:43:21.040Z,19.80
2022-10-31T07:44:22.664Z,16.67
2022-10-31T07:45:24.256Z,15.60
2022-10-31T07:46:25.872Z,14.20
2022-10-31T07:47:27.488Z,26.58
2022-10-31T07:48:29.191Z,12.98
2022-10-31T07:49:30.823Z,15.30
2022-10-31T07:50:36.611Z,16.77
2022-10-31T07:51:38.964Z,14.82
2022-10-31T07:52:43.439Z,14.82
2022-10-31T07:53:45.682Z,9.40
2022-10-31T07:54:47.255Z,15.88
2022-10-31T07:55:48.895Z,18.90
2022-10-31T07:56:50.524Z,18.52
2022-10-31T07:58:03.843Z,12.25
2022-10-31T07:59:05.571Z,10.77
2022-10-31T08:00:09.739Z,10.05
2022-10-31T08:02:13.181Z,18.48
2022-10-31T08:03:19.467Z,12.70
2022-10-31T08:04:21.546Z,13.27
2022-10-31T08:05:23.262Z,11.43
2022-10-31T08:06:24.854Z,16.60
2022-10-31T08:07:27.299Z,13.90
2022-10-31T08:08:32.292Z,15.43
2022-10-31T08:09:36.324Z,12.45
2022-10-31T08:10:38.288Z,10.35
2022-10-31T08:11:39.866Z,20.48
2022-10-31T08:12:41.455Z,23.25
2022-10-31T08:13:43.892Z,15.80
2022-10-31T08:14:45.573Z,13.10
2022-10-31T08:15:51.186Z,15.93
2022-10-31T08:16:54.241Z,14.45
2022-10-31T08:17:56.068Z,21.50
2022-10-31T08:18:57.693Z,19.15
2022-10-31T08:19:59.316Z,16.65
2022-10-31T08:21:00.878Z,12.65
2022-10-31T08:22:02.621Z,14.10
2022-10-31T08:23:05.835Z,18.77
2022-10-31T08:24:07.514Z,11.30
2022-10-31T08:25:10.011Z,13.55
2022-10-31T08:26:11.628Z,13.70
2022-10-31T08:27:13.200Z,11.23
2022-10-31T08:28:15.871Z,14.65
2022-10-31T08:29:17.472Z,17.42
2022-10-31T08:30:20.396Z,17.77
2022-10-31T08:31:22.466Z,12.32
2022-10-31T08:32:24.076Z,14.38
2022-10-31T08:33:25.693Z,14.25
2022-10-31T08:34:27.281Z,16.20
2022-10-31T08:35:29.338Z,13.32
2022-10-31T08:36:31.051Z,21.73
2022-10-31T08:37:32.631Z,20.00
2022-10-31T08:38:34.237Z,17.33
2022-10-31T08:39:35.818Z,14.57
2022-10-31T08:40:37.961Z,17.90
2022-10-31T08:41:39.701Z,14.82
2022-10-31T08:42:41.477Z,16.35
2022-10-31T08:43:43.098Z,11.38
2022-10-31T08:44:44.695Z,17.27
2022-10-31T08:45:50.018Z,17.75
2022-10-31T08:46:51.642Z,28.92
2022-10-31T08:47:57.257Z,22.77
2022-10-31T08:48:59.032Z,18.38
2022-10-31T08:50:00.629Z,23.95
2022-10-31T08:51:02.326Z,16.77
2022-10-31T08:52:04.103Z,18.77
2022-10-31T08:53:24.028Z,23.50
2022-10-31T08:54:25.634Z,18.63
2022-10-31T08:55:27.224Z,14.63
2022-10-31T08:56:28.824Z,13.27
2022-10-31T08:57:30.411Z,22.25
2022-10-31T08:58:35.146Z,21.65
2022-10-31T08:59:39.226Z,19.88
2022-10-31T09:00:41.256Z,13.05
2022-10-31T09:01:42.980Z,17.33
2022-10-31T09:02:44.729Z,17.88
2022-10-31T09:03:46.652Z,28.67
2022-10-31T09:04:48.269Z,23.20
2022-10-31T09:05:50.423Z,14.48
2022-10-31T09:08:16.615Z,24.17
2022-10-31T09:09:18.646Z,19.70
2022-10-31T09:10:20.277Z,21.73
2022-10-31T09:11:21.869Z,17.77
2022-10-31T09:12:24.837Z,14.85
2022-10-31T09:13:28.248Z,20.63
2022-10-31T09:14:30.039Z,18.25
2022-10-31T09:15:31.689Z,13.00
2022-10-31T09:16:33.283Z,16.77
2022-10-31T09:17:34.932Z,13.13
2022-10-31T09:18:36.530Z,21.95
2022-10-31T09:19:38.111Z,18.30
2022-10-31T09:20:41.791Z,13.40
2022-10-31T09:21:43.423Z,14.90
2022-10-31T09:22:45.228Z,20.80
2022-10-31T09:23:46.871Z,21.53
2022-10-31T09:24:48.467Z,15.30
2022-10-31T09:25:52.019Z,20.50
2022-10-31T09:26:53.623Z,14.82
2022-10-31T09:28:00.239Z,19.67
2022-10-31T09:29:02.911Z,21.17
2022-10-31T09:30:05.546Z,16.20
2022-10-31T09:31:07.182Z,14.63
2022-10-31T09:32:08.749Z,21.80
2022-10-31T09:33:14.558Z,13.50
2022-10-31T09:34:16.203Z,14.80
2022-10-31T09:35:20.391Z,20.83
2022-10-31T09:36:24.749Z,22.53
2022-10-31T09:37:26.331Z,17.90
2022-10-31T09:38:27.944Z,15.10
2022-10-31T09:39:29.553Z,21.17
2022-10-31T09:40:42.948Z,18.33
2022-10-31T09:42:04.785Z,18.10
2022-10-31T09:43:18.054Z,18.70
2022-10-31T09:44:51.557Z,14.33
2022-10-31T09:46:00.617Z,29.70
2022-10-31T09:47:06.262Z,19.47
2022-10-31T09:48:18.626Z,26.10
2022-10-31T09:49:53.720Z,22.63
2022-10-31T09:51:14.162Z,23.30
2022-10-31T09:52:28.054Z,14.63
2022-10-31T09:54:01.353Z,19.47
2022-10-31T09:55:27.899Z,21.03
2022-10-31T09:56:32.124Z,18.80
2022-10-31T09:57:36.619Z,16.73
2022-10-31T09:58:43.995Z,16.43
2022-10-31T09:59:47.624Z,20.27
2022-10-31T10:00:49.538Z,15.70
2022-10-31T10:02:22.674Z,15.87
2022-10-31T10:03:40.131Z,16.30
2022-10-31T10:05:02.060Z,21.87
2022-10-31T10:06:15.273Z,16.47
2022-10-31T10:07:31.910Z,16.20
2022-10-31T10:08:35.843Z,15.53
2022-10-31T10:09:37.475Z,22.93
2022-10-31T10:11:11.374Z,20.80
2022-10-31T10:12:41.101Z,20.47
2022-10-31T10:13:51.405Z,15.93
2022-10-31T10:15:29.373Z,15.60
2022-10-31T10:16:40.123Z,19.93
2022-10-31T10:18:01.685Z,15.67
2022-10-31T10:19:23.730Z,25.20
2022-10-31T10:21:03.291Z,24.20
2022-10-31T10:22:22.577Z,18.60
2022-10-31T10:23:37.505Z,37.27
2022-10-31T10:25:04.591Z,25.90
2022-10-31T10:26:18.205Z,25.90
2022-10-31T10:27:50.868Z,21.80
2022-10-31T10:29:29.865Z,22.33
2022-10-31T10:30:35.264Z,29.80
2022-10-31T10:31:42.362Z,23.53
2022-10-31T10:32:53.501Z,17.63
2022-10-31T10:34:25.463Z,17.97
2022-10-31T10:35:35.612Z,29.00
2022-10-31T10:36:46.005Z,24.73
2022-10-31T10:37:49.879Z,19.63
2022-10-31T10:38:56.196Z,25.60
2022-10-31T10:40:07.665Z,23.83
2022-10-31T10:41:16.952Z,18.53
2022-10-31T10:42:37.015Z,24.13
2022-10-31T10:43:39.257Z,27.73
2022-10-31T10:45:06.246Z,20.90
2022-10-31T10:47:01.079Z,25.97
2022-10-31T10:48:33.790Z,28.43
2022-10-31T10:49:51.088Z,23.20
2022-10-31T10:50:53.582Z,30.53
2022-10-31T10:52:19.236Z,18.10
2022-10-31T10:54:09.407Z,30.50
2022-10-31T10:55:15.066Z,27.03
2022-10-31T10:56:41.610Z,38.57
2022-10-31T10:58:01.712Z,29.63
2022-10-31T10:59:04.519Z,28.50
2022-10-31T11:00:20.385Z,30.10
2022-10-31T11:01:23.504Z,27.87
2022-10-31T11:02:28.056Z,26.63
2022-10-31T11:03:29.966Z,26.70
2022-10-31T11:04:36.764Z,29.73
2022-10-31T11:05:51.674Z,31.93
2022-10-31T11:07:08.179Z,34.20
2022-10-31T11:08:10.154Z,32.03
2022-10-31T11:09:11.957Z,23.33
2022-10-31T11:10:15.194Z,28.37
2022-10-31T11:11:31.818Z,26.03
2022-10-31T11:12:34.847Z,23.87
2022-10-31T11:13:37.211Z,27.73
2022-10-31T11:14:51.637Z,31.90
2022-10-31T11:15:57.792Z,40.70
2022-10-31T11:17:18.325Z,35.60
2022-10-31T11:18:27.858Z,35.33
2022-10-31T11:19:29.702Z,32.57
2022-10-31T11:20:36.992Z,30.80
2022-10-31T11:21:38.850Z,26.53
2022-10-31T11:22:45.890Z,28.80
2022-10-31T11:23:47.489Z,27.13
2022-10-31T11:24:49.143Z,29.00
2022-10-31T11:26:02.518Z,28.60
2022-10-31T11:27:20.728Z,32.90
2022-10-31T11:28:23.296Z,24.70
2022-10-31T11:29:26.236Z,29.90
2022-10-31T11:30:28.375Z,28.33
2022-10-31T11:31:30.702Z,32.13
2022-10-31T11:32:32.825Z,26.30
2022-10-31T11:33:55.487Z,27.20
2022-10-31T11:35:04.567Z,28.30
2022-10-31T11:36:25.742Z,27.53
2022-10-31T11:37:31.118Z,28.00
2022-10-31T11:38:41.740Z,21.67
2022-10-31T11:39:46.188Z,25.60
2022-10-31T11:41:15.486Z,29.97
2022-10-31T11:42:17.092Z,31.40
2022-10-31T11:43:19.723Z,28.10
2022-10-31T11:44:30.052Z,24.37
2022-10-31T11:45:37.703Z,25.43
2022-10-31T11:46:45.782Z,27.97
2022-10-31T11:47:54.045Z,27.40
2022-10-31T11:48:58.515Z,25.57
2022-10-31T11:50:03.864Z,34.33
2022-10-31T11:51:06.062Z,30.30
2022-10-31T11:52:14.037Z,25.80
2022-10-31T11:53:23.723Z,29.73
2022-10-31T11:54:35.898Z,27.03
2022-10-31T11:55:40.672Z,29.80
2022-10-31T11:56:43.294Z,31.70
2022-10-31T11:57:53.042Z,27.00
2022-10-31T11:58:58.396Z,34.50
2022-10-31T12:00:04.343Z,22.60
2022-10-31T12:01:06.152Z,25.60
2022-10-31T12:02:20.331Z,26.30
2022-10-31T12:03:33.028Z,23.63
2022-10-31T12:05:12.607Z,24.87
2022-10-31T12:06:21.641Z,25.60
2022-10-31T12:07:24.483Z,22.13
2022-10-31T12:08:31.149Z,25.47
2022-10-31T12:09:37.834Z,28.00
2022-10-31T12:10:58.381Z,34.00
2022-10-31T12:12:09.024Z,32.40
2022-10-31T12:13:33.323Z,26.53
2022-10-31T12:14:58.922Z,26.73
2022-10-31T12:16:10.340Z,33.40
2022-10-31T12:17:34.266Z,24.03
2022-10-31T12:18:59.144Z,29.77
2022-10-31T12:20:09.489Z,23.43
2022-10-31T12:21:45.792Z,28.13
2022-10-31T12:23:11.013Z,28.90
2022-10-31T12:24:30.960Z,29.00
2022-10-31T12:25:51.580Z,15.47
2022-10-31T12:27:19.610Z,29.30
2022-10-31T12:28:55.154Z,20.77
2022-10-31T12:30:09.330Z,25.67
2022-10-31T12:31:42.623Z,21.83
2022-10-31T12:33:02.743Z,19.60
2022-10-31T12:34:32.233Z,23.93
2022-10-31T12:35:42.673Z,21.07
2022-10-31T12:37:23.036Z,23.70
2022-10-31T12:38:43.777Z,24.00
2022-10-31T12:40:25.064Z,27.10
2022-10-31T12:41:52.867Z,27.43
2022-10-31T12:43:12.501Z,26.60
2022-10-31T12:44:33.955Z,33.30
2022-10-31T12:46:00.052Z,21.73
2022-10-31T12:47:26.668Z,30.10
2022-10-31T12:49:09.486Z,28.27
2022-10-31T12:50:16.473Z,26.20
2022-10-31T12:51:29.727Z,26.20
2022-10-31T12:52:55.543Z,29.50
2022-10-31T12:54:08.641Z,29.50
2022-10-31T12:55:25.553Z,30.03
2022-10-31T12:56:39.252Z,30.53
2022-10-31T12:57:46.064Z,30.90
2022-10-31T12:58:56.159Z,30.40
2022-10-31T13:00:00.334Z,37.43
2022-10-31T13:01:10.620Z,26.07
2022-10-31T13:02:23.768Z,32.47
2022-10-31T13:03:56.891Z,28.80
2022-10-31T13:05:04.562Z,27.57
2022-10-31T13:07:18.158Z,27.60
2022-10-31T13:08:29.697Z,30.50
2022-10-31T13:09:42.091Z,34.27
2022-10-31T13:10:52.093Z,27.90
2022-10-31T13:11:59.606Z,26.73
2022-10-31T13:13:24.316Z,43.13
2022-10-31T13:14:37.881Z,32.83
2022-10-31T13:15:51.506Z,29.10
2022-10-31T13:16:56.131Z,33.03
2022-10-31T13:18:01.998Z,31.43
2022-10-31T13:19:21.503Z,35.67
2022-10-31T13:20:29.380Z,29.30
2022-10-31T13:21:42.473Z,38.83
2022-10-31T13:22:47.790Z,37.37
2022-10-31T13:23:52.699Z,30.70
2022-10-31T13:25:04.613Z,31.83
2022-10-31T13:26:37.696Z,31.00
2022-10-31T13:27:56.280Z,34.40
2022-10-31T13:29:13.187Z,31.50
2022-10-31T13:30:23.637Z,35.53
2022-10-31T13:31:25.345Z,37.90
2022-10-31T13:32:31.431Z,34.13
2022-10-31T13:33:40.191Z,37.40
2022-10-31T13:34:48.047Z,32.73
2022-10-31T13:36:20.049Z,34.63
2022-10-31T13:37:27.893Z,28.47
2022-10-31T13:38:55.747Z,30.53
2022-10-31T13:40:17.135Z,34.77
2022-10-31T13:41:50.926Z,31.73
2022-10-31T13:43:21.394Z,30.67
2022-10-31T13:44:28.341Z,39.37
2022-10-31T13:45:29.959Z,33.30
2022-10-31T13:46:34.489Z,27.20
2022-10-31T13:47:36.223Z,29.63
2022-10-31T13:48:42.219Z,29.43
2022-10-31T13:49:43.886Z,31.83
2022-10-31T13:50:58.964Z,28.83
2022-10-31T13:52:12.359Z,28.80
2022-10-31T13:53:21.882Z,37.87
2022-10-31T13:54:33.653Z,29.20
2022-10-31T13:55:44.091Z,27.83
2022-10-31T13:56:51.269Z,25.00
2022-10-31T13:57:54.011Z,31.50
2022-10-31T13:59:10.902Z,37.67
2022-10-31T14:00:21.372Z,24.40
2022-10-31T14:01:23.561Z,35.97
2022-10-31T14:02:34.155Z,25.50
2022-10-31T14:05:08.766Z,27.30
2022-10-31T14:06:13.946Z,33.27
2022-10-31T14:07:19.371Z,30.33
2022-10-31T14:08:23.502Z,33.47
2022-10-31T14:09:32.769Z,22.60
2022-10-31T14:10:37.842Z,26.37
2022-10-31T14:11:39.548Z,22.40
2022-10-31T14:12:45.400Z,28.60
2022-10-31T14:13:47.795Z,38.77
2022-10-31T14:14:53.401Z,26.13
2022-10-31T14:15:58.332Z,24.07
2022-10-31T14:17:00.913Z,19.73
2022-10-31T14:18:06.433Z,24.47
2022-10-31T14:19:15.339Z,24.97
2022-10-31T14:20:16.904Z,24.57
2022-10-31T14:21:24.804Z,28.40
2022-10-31T14:22:37.452Z,23.13
2022-10-31T14:23:44.788Z,29.40
2022-10-31T14:24:46.573Z,24.57
2022-10-31T14:25:48.250Z,32.27
2022-10-31T14:27:22.628Z,20.93
2022-10-31T14:28:36.126Z,23.30
2022-10-31T14:29:37.715Z,27.27
2022-10-31T14:30:39.479Z,26.00
2022-10-31T14:31:54.986Z,29.53
2022-10-31T14:33:03.319Z,23.63
2022-10-31T14:34:17.195Z,31.90